createdAt,value
2019-02-21T00:00:49.783Z,17.95
2019-02-21T00:03:18.073Z,18.82
2019-02-21T00:05:46.323Z,19.40
2019-02-21T00:08:14.655Z,21.12
2019-02-21T00:10:47.735Z,21.85
2019-02-21T00:13:16.101Z,20.57
2019-02-21T00:15:56.590Z,19.70
2019-02-21T00:18:24.951Z,21.85
2019-02-21T00:20:57.274Z,21.02
2019-02-21T00:23:25.515Z,20.35
2019-02-21T00:25:55.741Z,20.77
2019-02-21T00:28:23.780Z,20.05
2019-02-21T00:30:52.021Z,20.70
2019-02-21T00:33:20.277Z,20.90
2019-02-21T00:35:48.580Z,20.85
2019-02-21T00:38:16.870Z,21.57
2019-02-21T00:40:45.092Z,20.88
2019-02-21T00:43:13.354Z,20.80
2019-02-21T00:45:41.598Z,21.93
2019-02-21T00:48:09.966Z,22.45
2019-02-21T00:50:38.258Z,21.00
2019-02-21T00:53:06.525Z,20.75
2019-02-21T00:55:34.875Z,22.10
2019-02-21T00:58:03.181Z,22.40
2019-02-21T01:00:31.431Z,22.62
2019-02-21T01:02:59.675Z,23.45
2019-02-21T01:05:27.959Z,23.32
2019-02-21T01:07:56.211Z,22.55
2019-02-21T01:10:24.494Z,24.90
2019-02-21T01:12:52.754Z,24.72
2019-02-21T01:15:20.977Z,23.67
2019-02-21T01:17:56.192Z,24.60
2019-02-21T01:20:25.470Z,22.95
2019-02-21T01:23:00.786Z,22.85
2019-02-21T01:25:50.483Z,23.83
2019-02-21T01:28:26.538Z,23.47
2019-02-21T01:31:08.347Z,23.20
2019-02-21T01:33:40.010Z,24.98
2019-02-21T01:36:20.098Z,23.80
2019-02-21T01:38:51.232Z,24.67
2019-02-21T01:41:35.059Z,25.57
2019-02-21T01:44:07.859Z,26.02
2019-02-21T01:46:38.129Z,27.27
2019-02-21T01:49:07.850Z,26.10
2019-02-21T01:51:50.187Z,25.20
2019-02-21T01:54:32.971Z,25.57
2019-02-21T01:57:02.638Z,24.95
2019-02-21T02:02:19.918Z,23.98
2019-02-21T02:04:55.076Z,24.40
2019-02-21T02:07:33.509Z,24.67
2019-02-21T02:10:02.321Z,23.77
2019-02-21T02:12:31.162Z,22.65
2019-02-21T02:14:59.446Z,24.35
2019-02-21T02:17:27.688Z,25.70
2019-02-21T02:19:55.910Z,25.40
2019-02-21T02:22:24.167Z,26.20
2019-02-21T02:24:52.417Z,26.87
2019-02-21T02:27:20.691Z,29.30
2019-02-21T02:29:48.965Z,26.73
2019-02-21T02:32:17.251Z,29.32
2019-02-21T02:34:45.583Z,30.52
2019-02-21T02:37:13.858Z,29.48
2019-02-21T02:39:42.136Z,27.40
2019-02-21T02:42:10.414Z,26.00
2019-02-21T02:44:38.696Z,28.40
2019-02-21T02:47:06.968Z,28.15
2019-02-21T02:49:35.293Z,27.80
2019-02-21T02:52:03.625Z,28.02
2019-02-21T02:54:32.701Z,31.17
2019-02-21T02:57:01.062Z,28.52
2019-02-21T02:59:40.241Z,27.35
2019-02-21T03:01:59.323Z,27.37
2019-02-21T03:04:27.665Z,27.02
2019-02-21T03:07:15.423Z,27.37
2019-02-21T03:09:43.654Z,27.22
2019-02-21T03:12:11.922Z,27.85
2019-02-21T03:14:40.143Z,27.50
2019-02-21T03:17:08.383Z,27.52
2019-02-21T03:19:36.669Z,28.05
2019-02-21T03:22:04.880Z,28.12
2019-02-21T03:24:33.142Z,26.77
2019-02-21T03:27:01.387Z,26.45
2019-02-21T03:29:29.663Z,27.35
2019-02-21T03:31:57.906Z,26.15
2019-02-21T03:34:26.179Z,25.48
2019-02-21T03:37:00.396Z,26.75
2019-02-21T03:39:28.674Z,24.55
2019-02-21T03:41:56.900Z,25.35
2019-02-21T03:44:25.251Z,24.55
2019-02-21T03:46:53.489Z,24.25
2019-02-21T03:49:21.800Z,25.80
2019-02-21T03:51:50.094Z,25.40
2019-02-21T03:54:18.475Z,24.37
2019-02-21T03:56:46.710Z,25.77
2019-02-21T03:59:14.982Z,26.05
2019-02-21T04:01:43.241Z,25.92
2019-02-21T04:04:11.503Z,24.77
2019-02-21T04:06:39.762Z,24.85
2019-02-21T04:09:08.620Z,26.15
2019-02-21T04:11:36.842Z,26.30
2019-02-21T04:14:05.112Z,25.27
2019-02-21T04:16:33.360Z,26.57
2019-02-21T04:19:01.638Z,25.05
2019-02-21T04:21:29.930Z,24.85
2019-02-21T04:23:58.215Z,25.37
2019-02-21T04:26:26.491Z,24.43
2019-02-21T04:28:54.747Z,23.83
2019-02-21T04:31:22.985Z,24.60
2019-02-21T04:33:51.262Z,25.75
2019-02-21T04:36:19.549Z,26.30
2019-02-21T04:38:47.930Z,25.62
2019-02-21T04:41:16.164Z,26.73
2019-02-21T04:43:44.463Z,27.45
2019-02-21T04:46:12.739Z,27.73
2019-02-21T04:48:40.982Z,26.15
2019-02-21T04:51:09.205Z,27.30
2019-02-21T04:53:37.515Z,28.80
2019-02-21T04:56:05.764Z,28.67
2019-02-21T04:58:34.048Z,27.90
2019-02-21T05:01:02.289Z,28.80
2019-02-21T05:03:30.593Z,32.83
2019-02-21T05:05:58.871Z,33.50
2019-02-21T05:08:27.128Z,33.80
2019-02-21T05:10:55.477Z,34.55
2019-02-21T05:13:23.777Z,37.03
2019-02-21T05:15:52.004Z,35.45
2019-02-21T05:18:20.285Z,33.28
2019-02-21T05:20:48.550Z,35.33
2019-02-21T05:23:16.899Z,33.83
2019-02-21T05:25:45.230Z,36.68
2019-02-21T05:28:21.171Z,33.25
2019-02-21T05:30:51.054Z,35.55
2019-02-21T05:33:39.342Z,35.50
2019-02-21T05:36:18.500Z,34.20
2019-02-21T05:38:48.457Z,32.38
2019-02-21T05:41:18.332Z,31.05
2019-02-21T05:44:04.849Z,32.00
2019-02-21T05:46:40.567Z,32.03
2019-02-21T05:49:11.575Z,34.05
2019-02-21T05:51:41.676Z,35.48
2019-02-21T05:54:12.710Z,37.17
2019-02-21T05:56:55.136Z,35.17
2019-02-21T05:59:34.023Z,34.33
2019-02-21T06:02:03.924Z,35.20
2019-02-21T06:04:48.844Z,34.83
2019-02-21T06:07:22.430Z,33.73
2019-02-21T06:10:10.270Z,34.45
2019-02-21T06:12:52.394Z,33.65
2019-02-21T06:15:24.992Z,33.65
2019-02-21T06:20:37.409Z,31.87
2019-02-21T06:25:51.452Z,32.13
2019-02-21T06:28:18.629Z,32.78
2019-02-21T06:30:51.456Z,32.80
2019-02-21T06:33:19.741Z,32.73
2019-02-21T06:35:47.972Z,31.90
2019-02-21T06:38:16.231Z,29.55
2019-02-21T06:40:46.972Z,30.62
2019-02-21T06:43:14.623Z,30.23
2019-02-21T06:45:42.851Z,28.87
2019-02-21T06:48:11.108Z,30.30
2019-02-21T06:50:39.370Z,29.87
2019-02-21T06:53:07.621Z,31.57
2019-02-21T06:55:35.890Z,29.15
2019-02-21T06:58:04.219Z,31.37
2019-02-21T07:00:32.470Z,29.10
2019-02-21T07:03:01.470Z,29.07
2019-02-21T07:05:29.726Z,30.05
2019-02-21T07:07:57.991Z,29.12
2019-02-21T07:10:29.288Z,29.23
2019-02-21T07:12:57.534Z,30.05
2019-02-21T07:15:25.784Z,29.32
2019-02-21T07:17:54.071Z,31.07
2019-02-21T07:20:22.328Z,34.27
2019-02-21T07:22:50.665Z,32.42
2019-02-21T07:25:35.486Z,30.95
2019-02-21T07:28:11.368Z,30.00
2019-02-21T07:30:33.886Z,30.82
2019-02-21T07:33:02.141Z,31.57
2019-02-21T07:35:30.422Z,29.72
2019-02-21T07:37:58.691Z,31.77
2019-02-21T07:40:27.045Z,30.85
2019-02-21T07:42:55.350Z,29.52
2019-02-21T07:45:23.676Z,30.15
2019-02-21T07:47:51.940Z,30.23
2019-02-21T07:50:20.170Z,36.05
2019-02-21T07:52:48.447Z,29.57
2019-02-21T07:55:16.738Z,30.57
2019-02-21T07:57:45.010Z,29.65
2019-02-21T08:00:13.743Z,32.00
2019-02-21T08:02:42.068Z,31.37
2019-02-21T08:05:10.330Z,29.18
2019-02-21T08:07:38.608Z,30.02
2019-02-21T08:10:11.511Z,29.50
2019-02-21T08:12:40.578Z,30.68
2019-02-21T08:15:11.965Z,32.15
2019-02-21T08:17:40.441Z,32.03
2019-02-21T08:20:12.298Z,32.85
2019-02-21T08:22:40.563Z,33.10
2019-02-21T08:25:10.140Z,32.88
2019-02-21T08:27:42.578Z,32.03
2019-02-21T08:30:15.400Z,33.02
2019-02-21T08:33:00.637Z,32.25
2019-02-21T08:35:29.751Z,34.55
2019-02-21T08:37:58.014Z,34.63
2019-02-21T08:40:26.255Z,34.33
2019-02-21T08:42:54.520Z,33.13
2019-02-21T08:45:22.845Z,31.73
2019-02-21T08:47:56.862Z,32.08
2019-02-21T08:50:25.221Z,32.13
2019-02-21T08:52:53.513Z,33.65
2019-02-21T08:55:21.758Z,30.30
2019-02-21T08:57:50.111Z,32.23
2019-02-21T09:00:18.384Z,32.95
2019-02-21T09:02:46.795Z,32.33
2019-02-21T09:05:15.187Z,32.75
2019-02-21T09:07:46.095Z,33.85
2019-02-21T09:10:13.539Z,33.20
2019-02-21T09:12:41.779Z,33.48
2019-02-21T09:15:15.453Z,30.95
2019-02-21T09:17:43.740Z,32.80
2019-02-21T09:20:12.407Z,33.30
2019-02-21T09:22:40.717Z,32.78
2019-02-21T09:25:11.717Z,33.78
2019-02-21T09:27:39.982Z,33.65
2019-02-21T09:30:16.766Z,31.80
2019-02-21T09:32:45.056Z,33.45
2019-02-21T09:35:13.303Z,32.42
2019-02-21T09:37:41.589Z,31.95
2019-02-21T09:40:14.206Z,33.53
2019-02-21T09:42:42.479Z,33.80
2019-02-21T09:45:18.171Z,31.65
2019-02-21T09:47:46.430Z,33.00
2019-02-21T09:50:14.660Z,31.42
2019-02-21T09:52:42.942Z,34.67
2019-02-21T09:55:13.675Z,33.83
2019-02-21T09:57:41.953Z,34.63
2019-02-21T10:00:13.407Z,34.50
2019-02-21T10:02:42.159Z,34.33
2019-02-21T10:05:10.630Z,33.92
2019-02-21T10:07:38.906Z,34.73
2019-02-21T10:10:15.325Z,34.50
2019-02-21T10:12:43.683Z,33.80
2019-02-21T10:15:13.483Z,35.68
2019-02-21T10:17:41.753Z,35.10
2019-02-21T10:20:12.119Z,34.90
2019-02-21T10:22:40.375Z,35.15
2019-02-21T10:25:11.808Z,36.60
2019-02-21T10:27:40.046Z,37.00
2019-02-21T10:30:13.467Z,36.65
2019-02-21T10:32:41.805Z,34.95
2019-02-21T10:35:10.086Z,33.55
2019-02-21T10:37:38.337Z,32.45
2019-02-21T10:40:09.377Z,35.00
2019-02-21T10:42:38.021Z,35.17
2019-02-21T10:45:10.515Z,34.58
2019-02-21T10:47:38.756Z,35.70
2019-02-21T10:50:10.375Z,35.00
2019-02-21T10:52:41.507Z,35.43
2019-02-21T10:55:08.662Z,35.95
2019-02-21T10:57:36.936Z,37.10
2019-02-21T11:00:19.782Z,36.65
2019-02-21T11:02:48.026Z,36.05
2019-02-21T11:05:16.314Z,36.68
2019-02-21T11:07:44.581Z,34.50
2019-02-21T11:10:14.895Z,35.78
2019-02-21T11:12:43.194Z,35.13
2019-02-21T11:15:14.528Z,36.10
2019-02-21T11:17:42.786Z,35.20
2019-02-21T11:20:18.353Z,31.75
2019-02-21T11:22:46.595Z,36.00
2019-02-21T11:25:14.896Z,37.40
2019-02-21T11:27:43.148Z,36.42
2019-02-21T11:30:14.108Z,40.20
2019-02-21T11:32:42.362Z,37.58
2019-02-21T11:35:10.693Z,34.25
2019-02-21T11:37:44.278Z,36.75
2019-02-21T11:40:11.030Z,36.17
2019-02-21T11:42:39.327Z,37.15
2019-02-21T11:45:16.402Z,34.95
2019-02-21T11:47:44.671Z,34.20
2019-02-21T11:50:18.105Z,35.63
2019-02-21T11:52:46.661Z,35.10
2019-02-21T11:55:22.420Z,33.30
2019-02-21T11:57:50.746Z,33.38
2019-02-21T12:00:22.416Z,35.00
2019-02-21T12:02:50.731Z,32.88
2019-02-21T12:05:30.328Z,33.00
2019-02-21T12:07:52.076Z,32.65
2019-02-21T12:10:20.338Z,33.38
2019-02-21T12:12:48.599Z,35.40
2019-02-21T12:15:17.143Z,33.63
2019-02-21T12:17:45.446Z,33.70
2019-02-21T12:20:18.250Z,32.15
2019-02-21T12:22:47.150Z,32.98
2019-02-21T12:25:17.358Z,34.33
2019-02-21T12:27:45.648Z,32.93
2019-02-21T12:30:15.730Z,32.25
2019-02-21T12:32:44.033Z,33.30
2019-02-21T12:35:12.270Z,34.00
2019-02-21T12:37:40.538Z,34.63
2019-02-21T12:40:16.751Z,33.08
2019-02-21T12:42:45.024Z,33.98
2019-02-21T12:45:15.326Z,34.73
2019-02-21T12:47:50.856Z,32.23
2019-02-21T12:50:14.910Z,33.50
2019-02-21T12:52:43.205Z,31.02
2019-02-21T12:55:11.808Z,32.78
2019-02-21T12:57:40.075Z,33.35
2019-02-21T13:00:17.361Z,33.60
2019-02-21T13:02:45.605Z,35.00
2019-02-21T13:05:13.870Z,34.65
2019-02-21T13:07:42.111Z,34.40
2019-02-21T13:10:12.750Z,37.13
2019-02-21T13:12:41.101Z,32.93
2019-02-21T13:15:14.059Z,34.83
2019-02-21T13:17:42.313Z,31.23
2019-02-21T13:20:12.235Z,33.38
2019-02-21T13:22:40.484Z,33.92
2019-02-21T13:25:13.669Z,33.02
2019-02-21T13:30:16.743Z,33.98
2019-02-21T13:32:45.172Z,32.25
2019-02-21T13:35:13.677Z,33.18
2019-02-21T13:37:41.977Z,30.95
2019-02-21T13:40:14.951Z,31.48
2019-02-21T13:42:43.298Z,32.25
2019-02-21T13:45:35.550Z,31.85
2019-02-21T13:48:03.821Z,31.87
2019-02-21T13:50:32.085Z,31.90
2019-02-21T13:53:00.321Z,31.90
2019-02-21T13:55:28.644Z,31.17
2019-02-21T13:57:56.910Z,31.35
2019-02-21T14:00:25.165Z,30.65
2019-02-21T14:02:53.522Z,33.55
2019-02-21T14:05:21.796Z,32.75
2019-02-21T14:07:50.042Z,30.48
2019-02-21T14:10:18.314Z,33.90
2019-02-21T14:12:46.582Z,34.40
2019-02-21T14:15:25.000Z,34.08
2019-02-21T14:17:53.276Z,33.13
2019-02-21T14:20:21.553Z,36.10
2019-02-21T14:22:49.846Z,34.25
2019-02-21T14:25:18.130Z,33.65
2019-02-21T14:27:48.144Z,35.23
2019-02-21T14:30:20.937Z,34.83
2019-02-21T14:32:49.172Z,34.27
2019-02-21T14:35:17.458Z,33.98
2019-02-21T14:37:45.742Z,35.08
2019-02-21T14:40:15.443Z,34.48
2019-02-21T14:42:43.703Z,34.83
2019-02-21T14:45:27.015Z,34.38
2019-02-21T14:50:23.693Z,34.83
2019-02-21T14:52:51.970Z,33.55
2019-02-21T14:55:20.273Z,34.00
2019-02-21T14:57:48.534Z,33.95
2019-02-21T15:00:25.619Z,32.98
2019-02-21T15:02:53.955Z,34.90
2019-02-21T15:05:22.358Z,33.28
2019-02-21T15:07:50.602Z,32.98
2019-02-21T15:10:19.079Z,34.53
2019-02-21T15:12:47.355Z,32.98
2019-02-21T15:15:22.069Z,32.90
2019-02-21T15:17:50.604Z,33.88
2019-02-21T15:20:18.924Z,34.53
2019-02-21T15:22:47.209Z,34.75
2019-02-21T15:25:15.483Z,32.90
2019-02-21T15:27:43.770Z,32.03
2019-02-21T15:30:17.342Z,32.15
2019-02-21T15:32:45.616Z,31.97
2019-02-21T15:35:13.946Z,30.97
2019-02-21T15:37:44.687Z,28.77
2019-02-21T15:40:12.189Z,31.37
2019-02-21T15:42:40.539Z,30.12
2019-02-21T15:45:23.151Z,29.95
2019-02-21T15:47:46.302Z,30.68
2019-02-21T15:50:15.398Z,29.07
2019-02-21T15:52:44.770Z,29.65
2019-02-21T15:55:15.292Z,31.20
2019-02-21T15:58:02.685Z,29.35
2019-02-21T16:00:22.614Z,29.40
2019-02-21T16:02:50.961Z,29.52
2019-02-21T16:05:19.245Z,30.62
2019-02-21T16:07:47.584Z,28.85
2019-02-21T16:10:21.706Z,29.15
2019-02-21T16:12:50.756Z,30.00
2019-02-21T16:15:19.375Z,30.62
2019-02-21T16:17:47.677Z,30.62
2019-02-21T16:20:17.298Z,29.72
2019-02-21T16:22:45.715Z,33.00
2019-02-21T16:25:16.758Z,31.60
2019-02-21T16:27:45.019Z,31.80
2019-02-21T16:30:17.793Z,31.17
2019-02-21T16:32:46.087Z,30.23
2019-02-21T16:35:14.737Z,31.42
2019-02-21T16:37:43.048Z,28.77
2019-02-21T16:40:16.317Z,30.72
2019-02-21T16:42:44.561Z,31.77
2019-02-21T16:45:18.491Z,33.23
2019-02-21T16:47:46.737Z,32.13
2019-02-21T16:50:15.067Z,30.95
2019-02-21T16:52:43.467Z,31.27
2019-02-21T16:55:17.094Z,31.62
2019-02-21T16:57:45.382Z,29.18
2019-02-21T17:00:18.190Z,30.62
2019-02-21T17:02:47.478Z,28.45
2019-02-21T17:05:15.989Z,30.70
2019-02-21T17:07:44.261Z,30.80
2019-02-21T17:10:14.182Z,31.55
2019-02-21T17:12:42.512Z,29.67
2019-02-21T17:15:15.906Z,31.05
2019-02-21T17:17:44.172Z,31.52
2019-02-21T17:20:17.227Z,32.13
2019-02-21T17:25:14.727Z,31.48
2019-02-21T17:27:43.564Z,31.73
2019-02-21T17:30:14.860Z,31.30
2019-02-21T17:32:43.116Z,29.55
2019-02-21T17:35:11.429Z,28.27
2019-02-21T17:37:39.751Z,28.60
2019-02-21T17:40:13.971Z,32.35
2019-02-21T17:42:42.212Z,31.55
2019-02-21T17:45:10.837Z,31.27
2019-02-21T17:47:39.095Z,31.77
2019-02-21T17:50:11.027Z,33.18
2019-02-21T17:52:39.463Z,36.63
2019-02-21T17:55:09.617Z,36.75
2019-02-21T17:57:37.920Z,35.10
2019-02-21T18:00:20.179Z,36.17
2019-02-21T18:02:48.466Z,37.88
2019-02-21T18:05:16.712Z,38.90
2019-02-21T18:07:45.107Z,39.53
2019-02-21T18:10:15.352Z,38.63
2019-02-21T18:12:43.638Z,37.03
2019-02-21T18:15:13.714Z,37.98
2019-02-21T18:17:42.074Z,37.75
2019-02-21T18:20:12.763Z,37.80
2019-02-21T18:22:41.087Z,39.48
2019-02-21T18:25:12.709Z,41.42
2019-02-21T18:27:41.021Z,38.98
2019-02-21T18:30:12.405Z,39.65
2019-02-21T18:32:40.656Z,39.15
2019-02-21T18:35:10.506Z,38.45
2019-02-21T18:37:47.056Z,34.83
2019-02-21T18:40:26.210Z,36.13
2019-02-21T18:42:54.651Z,36.23
2019-02-21T18:45:24.575Z,36.40
2019-02-21T18:47:52.841Z,37.53
2019-02-21T18:50:21.145Z,36.38
2019-02-21T18:52:49.474Z,39.10
2019-02-21T18:55:19.129Z,37.33
2019-02-21T18:57:47.391Z,36.60
2019-02-21T19:00:24.129Z,37.15
2019-02-21T19:02:52.507Z,36.13
2019-02-21T19:05:21.495Z,37.75
2019-02-21T19:07:58.354Z,37.15
2019-02-21T19:10:21.268Z,38.13
2019-02-21T19:12:49.537Z,37.63
2019-02-21T19:15:19.833Z,37.58
2019-02-21T19:17:48.150Z,37.78
2019-02-21T19:20:17.967Z,36.17
2019-02-21T19:22:46.454Z,37.28
2019-02-21T19:25:14.804Z,38.58
2019-02-21T19:27:43.171Z,37.15
2019-02-21T19:30:14.835Z,37.75
2019-02-21T19:32:43.153Z,36.63
2019-02-21T19:35:11.606Z,37.13
2019-02-21T19:37:39.908Z,36.73
2019-02-21T19:40:09.735Z,37.15
2019-02-21T19:42:38.128Z,36.23
2019-02-21T19:45:08.320Z,37.25
2019-02-21T19:47:36.668Z,36.50
2019-02-21T19:50:07.653Z,36.83
2019-02-21T19:52:36.014Z,35.05
2019-02-21T19:55:05.575Z,35.25
2019-02-21T19:57:33.932Z,34.83
2019-02-21T20:00:02.408Z,32.95
2019-02-21T20:02:32.019Z,35.35
2019-02-21T20:05:00.329Z,35.28
2019-02-21T20:07:28.572Z,36.23
2019-02-21T20:09:56.879Z,35.28
2019-02-21T20:12:25.173Z,35.28
2019-02-21T20:14:53.446Z,35.60
2019-02-21T20:17:21.732Z,37.03
2019-02-21T20:19:50.009Z,35.78
2019-02-21T20:22:18.299Z,34.73
2019-02-21T20:24:46.589Z,35.55
2019-02-21T20:27:14.879Z,34.95
2019-02-21T20:29:43.158Z,35.50
2019-02-21T20:32:11.445Z,36.75
2019-02-21T20:34:39.737Z,33.85
2019-02-21T20:37:08.004Z,35.03
2019-02-21T20:39:36.300Z,34.18
2019-02-21T20:42:04.587Z,40.45
2019-02-21T20:44:33.045Z,35.17
2019-02-21T20:47:01.355Z,34.53
2019-02-21T20:49:29.641Z,33.70
2019-02-21T20:51:57.947Z,34.50
2019-02-21T20:54:26.208Z,35.95
2019-02-21T20:56:54.479Z,34.55
2019-02-21T20:59:22.822Z,35.38
2019-02-21T21:01:51.233Z,34.08
2019-02-21T21:04:19.551Z,36.80
2019-02-21T21:06:47.804Z,35.52
2019-02-21T21:09:16.132Z,33.95
2019-02-21T21:11:44.469Z,37.08
2019-02-21T21:14:12.763Z,35.50
2019-02-21T21:16:48.305Z,35.35
2019-02-21T21:19:16.627Z,34.18
2019-02-21T21:21:44.893Z,34.10
2019-02-21T21:24:13.127Z,37.20
2019-02-21T21:26:41.402Z,37.38
2019-02-21T21:29:09.726Z,36.70
2019-02-21T21:31:38.152Z,35.48
2019-02-21T21:34:06.421Z,35.10
2019-02-21T21:36:34.723Z,37.25
2019-02-21T21:39:03.076Z,38.58
2019-02-21T21:41:31.358Z,37.60
2019-02-21T21:43:59.606Z,36.33
2019-02-21T21:46:27.915Z,36.10
2019-02-21T21:48:56.194Z,37.23
2019-02-21T21:51:24.518Z,38.92
2019-02-21T21:53:52.847Z,37.65
2019-02-21T21:56:21.745Z,37.35
2019-02-21T21:58:50.092Z,38.33
2019-02-21T22:01:25.944Z,37.90
2019-02-21T22:03:54.213Z,38.60
2019-02-21T22:06:22.501Z,43.85
2019-02-21T22:08:50.782Z,40.78
2019-02-21T22:11:19.127Z,39.48
2019-02-21T22:13:47.362Z,37.15
2019-02-21T22:16:15.742Z,38.38
2019-02-21T22:18:44.026Z,37.48
2019-02-21T22:21:12.311Z,38.02
2019-02-21T22:23:40.614Z,36.23
2019-02-21T22:26:08.850Z,35.10
2019-02-21T22:28:37.125Z,34.95
2019-02-21T22:31:05.410Z,33.98
2019-02-21T22:33:36.234Z,40.10
2019-02-21T22:36:03.911Z,35.65
2019-02-21T22:38:32.218Z,36.55
2019-02-21T22:41:00.506Z,37.93
2019-02-21T22:43:28.836Z,35.75
2019-02-21T22:45:57.151Z,39.10
2019-02-21T22:48:25.426Z,37.25
2019-02-21T22:50:53.698Z,38.58
2019-02-21T22:53:21.994Z,37.98
2019-02-21T22:55:50.314Z,37.70
2019-02-21T22:58:18.646Z,39.20
2019-02-21T23:01:00.265Z,38.42
2019-02-21T23:03:34.366Z,37.93
2019-02-21T23:06:40.608Z,40.35
2019-02-21T23:09:13.163Z,38.05
2019-02-21T23:11:40.551Z,37.33
2019-02-21T23:14:08.860Z,38.75
2019-02-21T23:16:37.111Z,39.88
2019-02-21T23:19:05.422Z,39.63
2019-02-21T23:21:33.775Z,42.35
2019-02-21T23:24:02.031Z,39.58
2019-02-21T23:26:30.300Z,43.30
2019-02-21T23:28:58.582Z,42.53
2019-02-21T23:31:26.983Z,42.33
2019-02-21T23:34:02.934Z,42.80
2019-02-21T23:36:31.235Z,42.80
2019-02-21T23:38:59.477Z,41.58
2019-02-21T23:41:27.782Z,41.50
2019-02-21T23:43:56.016Z,40.67
2019-02-21T23:46:24.361Z,40.38
2019-02-21T23:48:52.615Z,38.75
2019-02-21T23:51:20.859Z,41.00
2019-02-21T23:53:49.111Z,39.80
2019-02-21T23:56:17.424Z,40.30
2019-02-21T23:58:45.674Z,42.85
